METAR Data
IDs: Format: Raw Decoded Include TAF

Data at: 0724 UTC 01 Aug 2021

KBVS 010715Z AUTO 16006KT 8SM SCT050 SCT055 BKN120 16/13 A3003 RMK A01